createdAt,value
2022-08-03T00:01:28.650Z,25.89
2022-08-03T00:03:55.802Z,25.78
2022-08-03T00:06:23.016Z,25.81
2022-08-03T00:08:50.210Z,25.75
2022-08-03T00:11:17.350Z,25.92
2022-08-03T00:13:44.590Z,26.00
2022-08-03T00:16:11.805Z,25.96
2022-08-03T00:18:38.980Z,25.81
2022-08-03T00:21:06.289Z,25.74
2022-08-03T00:23:51.716Z,25.70
2022-08-03T00:26:23.604Z,25.60
2022-08-03T00:28:50.978Z,25.40
2022-08-03T00:31:24.890Z,25.38
2022-08-03T00:34:06.934Z,25.26
2022-08-03T00:36:34.086Z,25.28
2022-08-03T00:39:01.342Z,25.31
2022-08-03T00:41:28.471Z,25.31
2022-08-03T00:43:55.646Z,25.32
2022-08-03T00:46:22.806Z,25.27
2022-08-03T00:48:50.182Z,25.28
2022-08-03T00:51:18.092Z,25.21
2022-08-03T00:53:46.028Z,25.11
2022-08-03T00:56:14.462Z,25.21
2022-08-03T00:58:44.055Z,25.10
2022-08-03T01:01:12.509Z,25.04
2022-08-03T01:03:41.727Z,25.23
2022-08-03T01:06:11.633Z,25.24
2022-08-03T01:08:52.451Z,25.10
2022-08-03T01:11:37.209Z,25.04
2022-08-03T01:14:27.268Z,24.78
2022-08-03T01:16:59.618Z,24.83
2022-08-03T01:19:36.455Z,24.82
2022-08-03T01:22:22.055Z,24.83
2022-08-03T01:25:07.610Z,24.92
2022-08-03T01:27:40.640Z,25.01
2022-08-03T01:30:08.862Z,25.04
2022-08-03T01:33:01.157Z,25.15
2022-08-03T01:35:38.346Z,25.22
2022-08-03T01:38:10.027Z,25.36
2022-08-03T01:40:37.846Z,25.37
2022-08-03T01:43:06.385Z,25.36
2022-08-03T01:45:34.489Z,25.40
2022-08-03T01:48:02.564Z,25.30
2022-08-03T01:50:31.229Z,25.28
2022-08-03T01:52:59.078Z,25.32
2022-08-03T01:55:29.382Z,25.25
2022-08-03T01:58:05.247Z,24.99
2022-08-03T02:00:37.799Z,24.95
2022-08-03T02:03:06.054Z,24.93
2022-08-03T02:05:34.091Z,24.81
2022-08-03T02:08:02.994Z,24.85
2022-08-03T02:10:34.582Z,24.97
2022-08-03T02:13:04.397Z,25.08
2022-08-03T02:15:32.775Z,25.28
2022-08-03T02:18:01.826Z,25.28
2022-08-03T02:20:33.013Z,25.27
2022-08-03T02:23:00.333Z,25.24
2022-08-03T02:25:28.333Z,25.15
2022-08-03T02:27:56.549Z,25.18
2022-08-03T02:30:29.761Z,25.31
2022-08-03T02:32:57.903Z,25.31
2022-08-03T02:35:26.356Z,25.25
2022-08-03T02:38:07.530Z,25.19
2022-08-03T02:40:35.486Z,25.05
2022-08-03T02:43:05.312Z,24.91
2022-08-03T02:45:35.267Z,24.77
2022-08-03T02:48:04.246Z,24.65
2022-08-03T02:50:33.424Z,24.60
2022-08-03T02:53:01.788Z,24.66
2022-08-03T02:55:29.502Z,24.72
2022-08-03T02:57:57.393Z,24.86
2022-08-03T03:00:29.989Z,24.72
2022-08-03T03:03:00.870Z,24.68
2022-08-03T03:05:56.235Z,24.59
2022-08-03T03:08:18.750Z,24.48
2022-08-03T03:10:48.684Z,24.43
2022-08-03T03:13:21.129Z,24.44
2022-08-03T03:15:49.018Z,24.28
2022-08-03T03:18:22.076Z,24.31
2022-08-03T03:20:51.735Z,24.31
2022-08-03T03:23:20.251Z,24.31
2022-08-03T03:25:47.502Z,24.21
2022-08-03T03:28:17.423Z,24.26
2022-08-03T03:30:44.759Z,24.36
2022-08-03T03:33:20.414Z,24.47
2022-08-03T03:35:47.789Z,24.49
2022-08-03T03:38:14.938Z,24.54
2022-08-03T03:40:42.250Z,24.61
2022-08-03T03:43:10.862Z,24.67
2022-08-03T03:45:38.386Z,24.65
2022-08-03T03:48:05.785Z,24.57
2022-08-03T03:50:33.394Z,24.45
2022-08-03T03:53:01.181Z,24.37
2022-08-03T03:55:28.541Z,24.41
2022-08-03T03:57:55.758Z,24.36
2022-08-03T04:00:26.521Z,24.41
2022-08-03T04:02:56.874Z,24.43
2022-08-03T04:05:45.892Z,24.57
2022-08-03T04:08:33.214Z,24.60
2022-08-03T04:11:19.126Z,24.58
2022-08-03T04:13:56.967Z,24.37
2022-08-03T04:16:31.818Z,24.33
2022-08-03T04:19:04.742Z,24.23
2022-08-03T04:21:33.335Z,24.28
2022-08-03T04:24:01.935Z,24.27
2022-08-03T04:26:31.503Z,24.29
2022-08-03T04:28:58.968Z,24.30
2022-08-03T04:31:27.257Z,24.40
2022-08-03T04:33:56.475Z,24.43
2022-08-03T04:36:27.745Z,24.48
2022-08-03T04:39:13.831Z,24.41
2022-08-03T04:42:07.643Z,24.60
2022-08-03T04:44:29.410Z,24.74
2022-08-03T04:46:57.067Z,24.79
2022-08-03T04:49:24.979Z,24.88
2022-08-03T04:51:52.581Z,24.95
2022-08-03T04:54:19.710Z,25.00
2022-08-03T04:56:46.833Z,25.03
2022-08-03T04:59:14.026Z,25.20
2022-08-03T05:01:44.142Z,25.14
2022-08-03T05:04:11.382Z,25.14
2022-08-03T05:06:45.212Z,25.13
2022-08-03T05:09:15.574Z,25.11
2022-08-03T05:12:03.666Z,25.22
2022-08-03T05:14:31.028Z,25.26
2022-08-03T05:16:58.156Z,25.34
2022-08-03T05:19:25.423Z,25.30
2022-08-03T05:21:53.104Z,25.24
2022-08-03T05:24:20.495Z,25.38
2022-08-03T05:26:47.872Z,25.46
2022-08-03T05:29:15.193Z,25.46
2022-08-03T05:31:42.793Z,25.42
2022-08-03T05:34:10.513Z,25.47
2022-08-03T05:36:38.015Z,25.60
2022-08-03T05:39:06.379Z,25.68
2022-08-03T05:41:36.610Z,25.79
2022-08-03T05:44:04.887Z,25.93
2022-08-03T05:46:31.995Z,25.90
2022-08-03T05:48:59.357Z,25.98
2022-08-03T05:51:26.568Z,26.02
2022-08-03T05:53:53.845Z,26.11
2022-08-03T05:56:25.227Z,26.13
2022-08-03T05:58:52.938Z,26.31
2022-08-03T06:01:23.902Z,26.45
2022-08-03T06:03:52.002Z,26.42
2022-08-03T06:06:19.345Z,26.57
2022-08-03T06:08:46.687Z,26.66
2022-08-03T06:11:16.718Z,26.72
2022-08-03T06:13:44.109Z,26.82
2022-08-03T06:16:11.216Z,26.89
2022-08-03T06:18:38.579Z,26.98
2022-08-03T06:21:15.291Z,27.05
2022-08-03T06:23:52.800Z,27.21
2022-08-03T06:26:22.854Z,27.35
2022-08-03T06:28:52.690Z,27.53
2022-08-03T06:31:23.926Z,27.64
2022-08-03T06:34:33.937Z,27.82
2022-08-03T06:36:38.767Z,28.07
2022-08-03T06:39:06.290Z,28.38
2022-08-03T06:41:37.442Z,28.88
2022-08-03T06:44:08.731Z,29.32
2022-08-03T06:46:37.521Z,29.78
2022-08-03T06:49:07.547Z,30.16
2022-08-03T06:52:06.107Z,30.33
2022-08-03T06:54:25.588Z,30.69
2022-08-03T06:56:52.771Z,30.70
2022-08-03T07:00:06.026Z,30.44
2022-08-03T07:02:07.467Z,30.29
2022-08-03T07:04:34.605Z,30.23
2022-08-03T07:07:01.756Z,30.37
2022-08-03T07:09:31.981Z,30.20
2022-08-03T07:11:59.405Z,30.45
2022-08-03T07:14:29.625Z,30.49
2022-08-03T07:16:58.253Z,30.86
2022-08-03T07:19:26.043Z,30.63
2022-08-03T07:21:53.536Z,30.97
2022-08-03T07:24:20.967Z,30.71
2022-08-03T07:26:48.082Z,30.80
2022-08-03T07:29:15.682Z,31.04
2022-08-03T07:31:42.875Z,30.84
2022-08-03T07:34:10.050Z,31.34
2022-08-03T07:36:37.363Z,31.27
2022-08-03T07:39:15.982Z,31.59
2022-08-03T07:41:45.819Z,31.47
2022-08-03T07:44:13.313Z,31.87
2022-08-03T07:46:40.439Z,31.74
2022-08-03T07:49:07.668Z,31.60
2022-08-03T07:51:35.079Z,31.60
2022-08-03T07:54:02.269Z,32.14
2022-08-03T07:56:30.071Z,32.16
2022-08-03T07:58:59.776Z,32.19
2022-08-03T08:01:27.088Z,31.90
2022-08-03T08:03:54.288Z,32.25
2022-08-03T08:06:21.960Z,31.85
2022-08-03T08:08:49.104Z,32.17
2022-08-03T08:11:16.249Z,32.16
2022-08-03T08:13:43.380Z,31.85
2022-08-03T08:16:10.519Z,31.99
2022-08-03T08:18:37.637Z,32.44
2022-08-03T08:21:04.831Z,32.59
2022-08-03T08:23:42.824Z,32.15
2022-08-03T08:26:11.569Z,32.71
2022-08-03T08:28:39.018Z,33.03
2022-08-03T08:31:07.216Z,33.15
2022-08-03T08:34:03.153Z,32.89
2022-08-03T08:36:25.562Z,32.59
2022-08-03T08:38:53.790Z,32.62
2022-08-03T08:41:20.984Z,32.67
2022-08-03T08:43:51.435Z,32.91
2022-08-03T08:46:23.929Z,33.13
2022-08-03T08:48:52.485Z,32.85
2022-08-03T08:51:20.668Z,32.86
2022-08-03T08:53:51.323Z,33.18
2022-08-03T08:56:19.922Z,33.32
2022-08-03T08:58:49.107Z,33.06
2022-08-03T09:01:20.466Z,33.11
2022-08-03T09:03:47.852Z,33.39
2022-08-03T09:06:15.362Z,33.87
2022-08-03T09:08:42.530Z,33.32
2022-08-03T09:11:12.033Z,33.48
2022-08-03T09:13:39.592Z,33.80
2022-08-03T09:16:11.202Z,33.41
2022-08-03T09:18:38.570Z,33.78
2022-08-03T09:21:35.996Z,33.92
2022-08-03T09:24:07.006Z,33.97
2022-08-03T09:26:38.243Z,34.38
2022-08-03T09:29:14.549Z,34.31
2022-08-03T09:31:44.623Z,34.26
2022-08-03T09:34:13.341Z,34.36
2022-08-03T09:36:50.453Z,34.14
2022-08-03T09:39:18.583Z,34.36
2022-08-03T09:42:03.798Z,34.51
2022-08-03T09:44:35.830Z,34.56
2022-08-03T09:47:04.047Z,34.91
2022-08-03T09:49:31.354Z,34.37
2022-08-03T09:52:31.296Z,34.59
2022-08-03T09:54:52.009Z,34.72
2022-08-03T09:57:25.761Z,35.02
2022-08-03T10:00:04.541Z,35.07
2022-08-03T10:02:40.265Z,35.07
2022-08-03T10:05:08.409Z,35.41
2022-08-03T10:07:45.900Z,34.63
2022-08-03T10:10:29.322Z,34.73
2022-08-03T10:13:00.199Z,34.58
2022-08-03T10:16:21.971Z,34.36
2022-08-03T10:18:14.648Z,33.92
2022-08-03T10:20:53.581Z,34.35
2022-08-03T10:23:21.561Z,34.56
2022-08-03T10:25:52.728Z,34.88
2022-08-03T10:28:21.259Z,34.81
2022-08-03T10:30:50.305Z,34.99
2022-08-03T10:33:50.993Z,34.93
2022-08-03T10:36:07.141Z,35.42
2022-08-03T10:38:43.371Z,34.93
2022-08-03T10:41:10.911Z,35.57
2022-08-03T10:43:45.925Z,35.41
2022-08-03T10:46:14.162Z,35.70
2022-08-03T10:48:41.365Z,35.64
2022-08-03T10:51:08.611Z,35.59
2022-08-03T10:53:40.510Z,35.50
2022-08-03T10:56:50.410Z,35.72
2022-08-03T10:59:27.780Z,35.89
2022-08-03T11:02:00.394Z,35.67
2022-08-03T11:04:29.740Z,35.14
2022-08-03T11:07:15.660Z,34.74
2022-08-03T11:09:44.127Z,35.06
2022-08-03T11:12:31.473Z,35.23
2022-08-03T11:15:06.591Z,35.52
2022-08-03T11:17:46.117Z,35.85
2022-08-03T11:20:41.333Z,35.65
2022-08-03T11:23:08.507Z,35.41
2022-08-03T11:25:58.637Z,35.63
2022-08-03T11:28:32.187Z,35.95
2022-08-03T11:31:39.569Z,35.89
2022-08-03T11:34:07.321Z,35.85
2022-08-03T11:36:53.310Z,36.05
2022-08-03T11:39:20.507Z,36.22
2022-08-03T11:41:47.653Z,36.10
2022-08-03T11:44:53.393Z,36.40
2022-08-03T11:47:21.363Z,36.15
2022-08-03T11:49:49.903Z,36.76
2022-08-03T11:52:17.812Z,36.39
2022-08-03T11:54:45.244Z,35.85
2022-08-03T11:57:12.408Z,35.82
2022-08-03T11:59:39.516Z,36.39
2022-08-03T12:02:11.041Z,36.17
2022-08-03T12:04:51.302Z,36.12
2022-08-03T12:07:24.400Z,35.96
2022-08-03T12:10:06.548Z,35.83
2022-08-03T12:12:33.792Z,36.00
2022-08-03T12:15:04.250Z,35.86
2022-08-03T12:17:40.334Z,35.90
2022-08-03T12:20:08.540Z,35.71
2022-08-03T12:22:37.346Z,35.84
2022-08-03T12:25:05.505Z,36.30
2022-08-03T12:27:32.639Z,36.49
2022-08-03T12:30:01.815Z,36.17
2022-08-03T12:32:29.495Z,36.08
2022-08-03T12:35:05.965Z,36.52
2022-08-03T12:37:33.419Z,36.41
2022-08-03T12:40:09.543Z,36.34
2022-08-03T12:42:38.982Z,36.47
2022-08-03T12:45:22.462Z,35.90
2022-08-03T12:47:59.890Z,36.25
2022-08-03T12:50:31.960Z,36.54
2022-08-03T12:53:00.408Z,36.11
2022-08-03T12:55:57.867Z,36.30
2022-08-03T12:58:33.554Z,36.26
2022-08-03T13:01:01.587Z,36.18
2022-08-03T13:03:42.459Z,36.28
2022-08-03T13:06:17.135Z,36.18
2022-08-03T13:08:44.470Z,36.19
2022-08-03T13:11:22.010Z,36.02
2022-08-03T13:13:49.751Z,35.89
2022-08-03T13:16:19.387Z,35.92
2022-08-03T13:18:47.159Z,36.20
2022-08-03T13:21:19.262Z,35.75
2022-08-03T13:23:46.795Z,35.54
2022-08-03T13:26:13.938Z,35.87
2022-08-03T13:28:41.198Z,35.59
2022-08-03T13:31:08.377Z,35.62
2022-08-03T13:33:35.667Z,35.69
2022-08-03T13:36:02.796Z,35.79
2022-08-03T13:38:30.152Z,35.94
2022-08-03T13:40:58.775Z,35.88
2022-08-03T13:43:25.954Z,35.98
2022-08-03T13:45:57.675Z,35.84
2022-08-03T13:48:37.028Z,35.73
2022-08-03T13:51:21.652Z,35.77
2022-08-03T13:53:50.481Z,35.72
2022-08-03T13:56:17.734Z,35.68
2022-08-03T13:58:44.880Z,35.77
2022-08-03T14:01:12.127Z,35.21
2022-08-03T14:03:39.355Z,35.29
2022-08-03T14:06:07.534Z,35.55
2022-08-03T14:08:34.719Z,35.58
2022-08-03T14:11:01.967Z,35.71
2022-08-03T14:13:30.254Z,35.47
2022-08-03T14:15:57.402Z,35.55
2022-08-03T14:18:28.594Z,35.54
2022-08-03T14:21:05.532Z,35.54
2022-08-03T14:23:34.790Z,35.51
2022-08-03T14:26:01.944Z,35.50
2022-08-03T14:28:29.067Z,35.65
2022-08-03T14:30:56.401Z,35.33
2022-08-03T14:33:23.640Z,35.48
2022-08-03T14:35:51.391Z,35.19
2022-08-03T14:38:18.697Z,35.27
2022-08-03T14:40:46.348Z,35.28
2022-08-03T14:43:14.104Z,35.36
2022-08-03T14:45:41.449Z,35.34
2022-08-03T14:50:32.949Z,35.40
2022-08-03T14:50:58.723Z,35.10
2022-08-03T14:53:25.907Z,35.02
2022-08-03T14:55:53.662Z,34.87
2022-08-03T14:58:22.023Z,34.76
2022-08-03T15:00:50.342Z,34.74
2022-08-03T15:03:20.479Z,34.51
2022-08-03T15:05:47.795Z,34.62
2022-08-03T15:08:15.082Z,34.69
2022-08-03T15:10:44.317Z,34.93
2022-08-03T15:13:12.951Z,34.80
2022-08-03T15:15:40.327Z,34.78
2022-08-03T15:18:08.075Z,34.78
2022-08-03T15:20:50.875Z,34.83
2022-08-03T15:23:18.635Z,34.75
2022-08-03T15:26:29.035Z,34.59
2022-08-03T15:28:34.016Z,34.64
2022-08-03T15:31:01.748Z,34.69
2022-08-03T15:33:29.421Z,34.63
2022-08-03T15:35:56.879Z,34.55
2022-08-03T15:38:26.056Z,34.61
2022-08-03T15:41:01.250Z,34.55
2022-08-03T15:43:28.395Z,34.27
2022-08-03T15:46:26.464Z,34.25
2022-08-03T15:48:42.709Z,34.46
2022-08-03T15:51:10.095Z,34.27
2022-08-03T15:53:37.511Z,34.27
2022-08-03T15:56:09.825Z,34.11
2022-08-03T15:59:09.649Z,34.10
2022-08-03T16:01:26.418Z,34.14
2022-08-03T16:03:53.603Z,34.18
2022-08-03T16:06:29.757Z,34.33
2022-08-03T16:09:22.963Z,34.33
2022-08-03T16:11:54.647Z,34.28
2022-08-03T16:14:32.247Z,34.29
2022-08-03T16:17:03.445Z,34.41
2022-08-03T16:19:30.533Z,34.21
2022-08-03T16:21:57.705Z,34.03
2022-08-03T16:24:27.928Z,33.99
2022-08-03T16:26:55.854Z,34.04
2022-08-03T16:29:23.790Z,34.06
2022-08-03T16:31:52.139Z,34.22
2022-08-03T16:34:20.347Z,34.16
2022-08-03T16:36:48.495Z,34.06
2022-08-03T16:39:15.702Z,33.89
2022-08-03T16:41:53.575Z,33.94
2022-08-03T16:44:28.846Z,34.06
2022-08-03T16:46:55.988Z,33.96
2022-08-03T16:49:55.981Z,34.03
2022-08-03T16:52:10.245Z,33.99
2022-08-03T16:54:40.621Z,34.05
2022-08-03T16:57:08.640Z,33.86
2022-08-03T16:59:55.321Z,33.85
2022-08-03T17:02:26.273Z,33.86
2022-08-03T17:04:54.506Z,33.83
2022-08-03T17:07:23.011Z,33.81
2022-08-03T17:09:50.788Z,33.76
2022-08-03T17:12:25.955Z,33.72
2022-08-03T17:14:54.506Z,33.65
2022-08-03T17:17:37.728Z,33.46
2022-08-03T17:20:20.134Z,33.42
2022-08-03T17:23:01.495Z,33.40
2022-08-03T17:26:01.751Z,33.38
2022-08-03T17:28:49.513Z,33.36
2022-08-03T17:31:23.554Z,33.28
2022-08-03T17:34:00.933Z,33.29
2022-08-03T17:36:47.680Z,33.23
2022-08-03T17:39:16.667Z,33.10
2022-08-03T17:41:49.902Z,33.06
2022-08-03T17:44:33.045Z,33.03
2022-08-03T17:47:06.511Z,32.95
2022-08-03T17:52:41.433Z,32.81
2022-08-03T17:55:56.821Z,32.63
2022-08-03T17:58:10.470Z,32.66
2022-08-03T18:00:59.566Z,32.61
2022-08-03T18:03:57.879Z,32.63
2022-08-03T18:06:30.443Z,32.49
2022-08-03T18:11:51.341Z,32.41
2022-08-03T18:14:28.838Z,32.35
2022-08-03T18:17:00.605Z,32.25
2022-08-03T18:20:02.372Z,32.33
2022-08-03T18:22:19.918Z,32.13
2022-08-03T18:24:50.293Z,32.00
2022-08-03T18:27:19.587Z,31.92
2022-08-03T18:29:48.605Z,31.80
2022-08-03T18:32:16.868Z,31.77
2022-08-03T18:34:53.390Z,31.73
2022-08-03T18:37:25.626Z,31.75
2022-08-03T18:39:57.854Z,31.61
2022-08-03T18:42:26.630Z,31.59
2022-08-03T18:44:56.150Z,31.57
2022-08-03T18:47:24.179Z,31.45
2022-08-03T18:49:58.694Z,31.35
2022-08-03T18:52:28.835Z,31.25
2022-08-03T18:55:02.839Z,31.20
2022-08-03T18:57:46.555Z,31.11
2022-08-03T19:00:23.852Z,30.99
2022-08-03T19:02:55.276Z,31.01
2022-08-03T19:05:24.644Z,30.94
2022-08-03T19:08:16.542Z,30.93
2022-08-03T19:10:57.514Z,30.95
2022-08-03T19:13:36.598Z,30.91
2022-08-03T19:16:04.652Z,30.81
2022-08-03T19:18:37.494Z,30.72
2022-08-03T19:21:12.759Z,30.69
2022-08-03T19:23:47.298Z,30.62
2022-08-03T19:26:30.361Z,30.65
2022-08-03T19:28:58.904Z,30.60
2022-08-03T19:31:30.712Z,30.58
2022-08-03T19:34:00.332Z,30.60
2022-08-03T19:36:28.666Z,30.49
2022-08-03T19:38:56.609Z,30.40
2022-08-03T19:41:42.215Z,30.39
2022-08-03T19:44:11.835Z,30.22
2022-08-03T19:46:43.265Z,30.16
2022-08-03T19:49:15.314Z,30.18
2022-08-03T19:52:01.084Z,30.27
2022-08-03T19:54:53.929Z,30.32
2022-08-03T19:57:23.579Z,30.41
2022-08-03T19:59:52.732Z,30.30
2022-08-03T20:02:26.653Z,30.30
2022-08-03T20:04:56.149Z,30.44
2022-08-03T20:07:23.968Z,30.25
2022-08-03T20:09:54.701Z,30.27
2022-08-03T20:12:27.369Z,30.17
2022-08-03T20:14:57.523Z,29.96
2022-08-03T20:17:54.435Z,30.05
2022-08-03T20:20:12.950Z,30.00
2022-08-03T20:22:45.554Z,29.97
2022-08-03T20:25:16.229Z,29.93
2022-08-03T20:28:07.380Z,30.03
2022-08-03T20:30:38.755Z,30.28
2022-08-03T20:33:09.954Z,30.12
2022-08-03T20:35:37.152Z,30.00
2022-08-03T20:38:04.317Z,29.86
2022-08-03T20:40:32.272Z,29.82
2022-08-03T20:42:59.845Z,29.73
2022-08-03T20:46:00.360Z,29.75
2022-08-03T20:48:17.538Z,29.70
2022-08-03T20:50:49.449Z,29.67
2022-08-03T20:53:17.330Z,29.63
2022-08-03T20:56:04.269Z,29.58
2022-08-03T20:58:32.671Z,29.53
2022-08-03T21:01:01.003Z,29.54
2022-08-03T21:03:40.625Z,29.56
2022-08-03T21:06:17.767Z,29.61
2022-08-03T21:09:00.053Z,29.39
2022-08-03T21:11:41.590Z,29.41
2022-08-03T21:13:03.947Z,32.45
2022-08-03T21:13:04.092Z,32.92
2022-08-03T21:14:35.414Z,29.42
2022-08-03T21:17:09.423Z,29.35
2022-08-03T21:19:52.163Z,29.33
2022-08-03T21:22:25.789Z,29.28
2022-08-03T21:24:55.895Z,29.30
2022-08-03T21:27:29.667Z,29.14
2022-08-03T21:29:58.317Z,29.29
2022-08-03T21:32:32.626Z,29.19
2022-08-03T21:35:01.204Z,29.08
2022-08-03T21:37:28.972Z,29.17
2022-08-03T21:39:56.255Z,29.17
2022-08-03T21:42:27.662Z,29.08
2022-08-03T21:44:54.758Z,29.06
2022-08-03T21:47:23.787Z,29.12
2022-08-03T21:50:08.523Z,29.26
2022-08-03T21:52:41.035Z,29.32
2022-08-03T21:55:18.585Z,29.19
2022-08-03T21:57:52.013Z,29.10
2022-08-03T22:00:20.478Z,29.12
2022-08-03T22:02:54.735Z,29.01
2022-08-03T22:05:42.608Z,28.84
2022-08-03T22:08:12.714Z,28.86
2022-08-03T22:10:40.531Z,28.85
2022-08-03T22:13:08.153Z,28.80
2022-08-03T22:15:36.002Z,28.79
2022-08-03T22:18:04.504Z,28.69
2022-08-03T22:20:38.463Z,28.50
2022-08-03T22:23:07.032Z,28.50
2022-08-03T22:25:44.853Z,28.59
2022-08-03T22:28:13.323Z,28.61
2022-08-03T22:30:41.579Z,28.61
2022-08-03T22:33:11.097Z,28.68
2022-08-03T22:35:47.195Z,28.65
2022-08-03T22:38:15.923Z,28.59
2022-08-03T22:40:47.117Z,28.70
2022-08-03T22:43:14.313Z,28.63
2022-08-03T22:46:06.818Z,28.53
2022-08-03T22:48:35.133Z,28.46
2022-08-03T22:51:05.512Z,28.45
2022-08-03T22:53:34.403Z,28.46
2022-08-03T22:56:03.207Z,28.31
2022-08-03T22:58:30.410Z,28.28
2022-08-03T23:01:01.565Z,28.29
2022-08-03T23:04:00.537Z,28.22
2022-08-03T23:06:19.244Z,28.12
2022-08-03T23:08:56.664Z,28.13
2022-08-03T23:11:24.112Z,28.05
2022-08-03T23:13:53.903Z,28.00
2022-08-03T23:16:29.299Z,27.98
2022-08-03T23:18:58.763Z,27.92
2022-08-03T23:21:52.931Z,27.86
2022-08-03T23:24:25.261Z,27.96
2022-08-03T23:26:58.089Z,28.01
2022-08-03T23:29:26.328Z,28.04
2022-08-03T23:31:55.027Z,28.04
2022-08-03T23:34:41.714Z,27.96
2022-08-03T23:37:09.377Z,27.83
2022-08-03T23:39:36.740Z,27.93
2022-08-03T23:42:05.347Z,27.86
2022-08-03T23:44:34.485Z,27.92
2022-08-03T23:47:01.674Z,27.79
2022-08-03T23:49:29.437Z,27.44
2022-08-03T23:52:02.733Z,27.32
2022-08-03T23:54:59.966Z,27.37
2022-08-03T23:57:30.220Z,27.50
